GLD1043 SBSI-SWJN
Flight info
| Callsign | GLD1043 |
|---|---|
| Flight time | 1h 13m |
| Altitude | 4500 |
| Route | DCT 1138S564W 1129S5640W 1132S571W 1132S5720W 1128S5750W 1132S5814W 1131S5822W DCT |
| Aircraft | BE58/M-SDFGIRY/S |
Departure
| Time | 2026-04-26 17:40 |
|---|---|
| Airport | Presidente João Batista Figueiredo Airport (SBSI) |
Arrival
| Time | 2026-04-26 18:53 |
|---|---|
| Airport | Juína Airport (SWJN) |
| Time | Latitude | Longitude | Altitude | Speed | Heading |
|---|---|---|---|---|---|
| 2026-04-26 16:47 | -11.87908 | -55.58263 | 1239 ft | 0 kts | 325° |
| 2026-04-26 17:23 | -11.87909 | -55.58263 | 1247 ft | 0 kts | 325° |
| 2026-04-26 17:32 | -11.87909 | -55.58262 | 1246 ft | 0 kts | 325° |
| 2026-04-26 17:37 | -11.87905 | -55.58265 | 1257 ft | 4 kts | 314° |
| 2026-04-26 17:37 | -11.87894 | -55.58297 | 1244 ft | 5 kts | 300° |
| 2026-04-26 17:37 | -11.87861 | -55.58304 | 1238 ft | 6 kts | 336° |
| 2026-04-26 17:38 | -11.87837 | -55.58367 | 1243 ft | 0 kts | 309° |
| 2026-04-26 17:38 | -11.87833 | -55.58373 | 1240 ft | 3 kts | 291° |
| 2026-04-26 17:38 | -11.87823 | -55.58425 | 1241 ft | 9 kts | 281° |
| 2026-04-26 17:39 | -11.87832 | -55.58449 | 1246 ft | 0 kts | 197° |
| 2026-04-26 17:39 | -11.87833 | -55.58450 | 1246 ft | 0 kts | 194° |
| 2026-04-26 17:39 | -11.88059 | -55.58509 | 1237 ft | 76 kts | 195° |
| 2026-04-26 17:39 | -11.88743 | -55.58689 | 1361 ft | 115 kts | 193° |
| 2026-04-26 17:40 | -11.89508 | -55.58930 | 1670 ft | 118 kts | 193° |
| 2026-04-26 17:40 | -11.90041 | -55.59088 | 1807 ft | 120 kts | 191° |
| 2026-04-26 17:40 | -11.91088 | -55.58866 | 2027 ft | 125 kts | 122° |
| 2026-04-26 17:40 | -11.91130 | -55.58041 | 2276 ft | 122 kts | 63° |
| 2026-04-26 17:41 | -11.90498 | -55.57465 | 2528 ft | 129 kts | 24° |
| 2026-04-26 17:41 | -11.89579 | -55.57305 | 2685 ft | 140 kts | 8° |
| 2026-04-26 17:41 | -11.88611 | -55.57429 | 2948 ft | 144 kts | 331° |
| 2026-04-26 17:41 | -11.88023 | -55.58242 | 3252 ft | 146 kts | 298° |
| 2026-04-26 17:42 | -11.87539 | -55.59167 | 3478 ft | 148 kts | 301° |
| 2026-04-26 17:42 | -11.87090 | -55.60089 | 3712 ft | 147 kts | 298° |
| 2026-04-26 17:42 | -11.86660 | -55.61037 | 3946 ft | 147 kts | 297° |
| 2026-04-26 17:42 | -11.86222 | -55.61973 | 4188 ft | 146 kts | 298° |
| 2026-04-26 17:43 | -11.85776 | -55.62916 | 4427 ft | 148 kts | 298° |
| 2026-04-26 17:43 | -11.85312 | -55.63901 | 4459 ft | 163 kts | 298° |
| 2026-04-26 17:43 | -11.84802 | -55.64976 | 4448 ft | 171 kts | 298° |
| 2026-04-26 17:43 | -11.84273 | -55.66083 | 4456 ft | 176 kts | 298° |
| 2026-04-26 17:44 | -11.83718 | -55.67248 | 4448 ft | 186 kts | 297° |
| 2026-04-26 17:44 | -11.83139 | -55.68444 | 4454 ft | 188 kts | 298° |
| 2026-04-26 17:44 | -11.82548 | -55.69641 | 4454 ft | 188 kts | 298° |
| 2026-04-26 17:44 | -11.81975 | -55.70816 | 4449 ft | 187 kts | 298° |
| 2026-04-26 17:45 | -11.81398 | -55.72007 | 4448 ft | 188 kts | 298° |
| 2026-04-26 17:45 | -11.80820 | -55.73210 | 4446 ft | 189 kts | 298° |
| 2026-04-26 17:45 | -11.80242 | -55.74418 | 4451 ft | 189 kts | 298° |
| 2026-04-26 17:45 | -11.79663 | -55.75629 | 4446 ft | 190 kts | 298° |
| 2026-04-26 17:46 | -11.79074 | -55.76841 | 4448 ft | 191 kts | 298° |
| 2026-04-26 17:46 | -11.78483 | -55.78051 | 4444 ft | 190 kts | 298° |
| 2026-04-26 17:46 | -11.77896 | -55.79249 | 4441 ft | 187 kts | 298° |
| 2026-04-26 17:46 | -11.77319 | -55.80445 | 4450 ft | 190 kts | 298° |
| 2026-04-26 17:47 | -11.76741 | -55.81678 | 4446 ft | 195 kts | 298° |
| 2026-04-26 17:47 | -11.76359 | -55.82509 | 4441 ft | 195 kts | 298° |
| 2026-04-26 17:47 | -11.75601 | -55.84162 | 4438 ft | 189 kts | 297° |
| 2026-04-26 17:47 | -11.75032 | -55.85367 | 4436 ft | 188 kts | 298° |
| 2026-04-26 17:48 | -11.74438 | -55.86533 | 4437 ft | 187 kts | 302° |
| 2026-04-26 17:48 | -11.73819 | -55.87724 | 4442 ft | 193 kts | 301° |
| 2026-04-26 17:48 | -11.73190 | -55.88934 | 4440 ft | 192 kts | 301° |
| 2026-04-26 17:48 | -11.72562 | -55.90124 | 4438 ft | 189 kts | 302° |
| 2026-04-26 17:49 | -11.71945 | -55.91304 | 4436 ft | 187 kts | 301° |
| 2026-04-26 17:49 | -11.71336 | -55.92474 | 4437 ft | 187 kts | 301° |
| 2026-04-26 17:49 | -11.70718 | -55.93658 | 4444 ft | 191 kts | 301° |
| 2026-04-26 17:49 | -11.70076 | -55.94852 | 4440 ft | 192 kts | 301° |
| 2026-04-26 17:50 | -11.69442 | -55.96039 | 4435 ft | 189 kts | 301° |
| 2026-04-26 17:50 | -11.68811 | -55.97203 | 4437 ft | 187 kts | 301° |
| 2026-04-26 17:50 | -11.68195 | -55.98364 | 4435 ft | 185 kts | 301° |
| 2026-04-26 17:50 | -11.67580 | -55.99505 | 4431 ft | 183 kts | 301° |
| 2026-04-26 17:51 | -11.66981 | -56.00669 | 4433 ft | 187 kts | 300° |
| 2026-04-26 17:51 | -11.66377 | -56.01851 | 4431 ft | 188 kts | 300° |
| 2026-04-26 17:51 | -11.65752 | -56.03016 | 4430 ft | 187 kts | 303° |
| 2026-04-26 17:51 | -11.65071 | -56.04123 | 4428 ft | 183 kts | 304° |
| 2026-04-26 17:52 | -11.64398 | -56.05216 | 4431 ft | 181 kts | 304° |
| 2026-04-26 17:52 | -11.63726 | -56.06312 | 4436 ft | 184 kts | 304° |
| 2026-04-26 17:52 | -11.63126 | -56.07475 | 4433 ft | 188 kts | 288° |
| 2026-04-26 17:52 | -11.62826 | -56.08786 | 4440 ft | 192 kts | 283° |
| 2026-04-26 17:53 | -11.62550 | -56.10127 | 4445 ft | 194 kts | 283° |
| 2026-04-26 17:53 | -11.62267 | -56.11479 | 4437 ft | 195 kts | 283° |
| 2026-04-26 17:53 | -11.61986 | -56.12824 | 4446 ft | 193 kts | 283° |
| 2026-04-26 17:54 | -11.61434 | -56.15456 | 4428 ft | 189 kts | 283° |
| 2026-04-26 17:54 | -11.61165 | -56.16767 | 4433 ft | 189 kts | 283° |
| 2026-04-26 17:54 | -11.60887 | -56.18087 | 4433 ft | 192 kts | 283° |
| 2026-04-26 17:54 | -11.60606 | -56.19426 | 4429 ft | 193 kts | 283° |
| 2026-04-26 17:55 | -11.60326 | -56.20770 | 4434 ft | 194 kts | 283° |
| 2026-04-26 17:55 | -11.60057 | -56.22115 | 4429 ft | 193 kts | 283° |
| 2026-04-26 17:55 | -11.59786 | -56.23452 | 4432 ft | 192 kts | 283° |
| 2026-04-26 17:55 | -11.59515 | -56.24784 | 4430 ft | 191 kts | 283° |
| 2026-04-26 17:56 | -11.59251 | -56.26110 | 4433 ft | 191 kts | 283° |
| 2026-04-26 17:56 | -11.58709 | -56.28759 | 4434 ft | 190 kts | 283° |
| 2026-04-26 17:57 | -11.58151 | -56.31410 | 4438 ft | 195 kts | 283° |
| 2026-04-26 17:57 | -11.57870 | -56.32753 | 4431 ft | 192 kts | 283° |
| 2026-04-26 17:57 | -11.57580 | -56.34072 | 4431 ft | 189 kts | 284° |
| 2026-04-26 17:57 | -11.57303 | -56.35389 | 4442 ft | 192 kts | 283° |
| 2026-04-26 17:58 | -11.56450 | -56.39415 | 4429 ft | 191 kts | 283° |
| 2026-04-26 17:59 | -11.55894 | -56.42043 | 4434 ft | 189 kts | 283° |
| 2026-04-26 17:59 | -11.55618 | -56.43370 | 4438 ft | 193 kts | 283° |
| 2026-04-26 17:59 | -11.55432 | -56.44253 | 4428 ft | 191 kts | 283° |
| 2026-04-26 17:59 | -11.55025 | -56.45991 | 4430 ft | 188 kts | 285° |
| 2026-04-26 18:00 | -11.54816 | -56.46842 | 4423 ft | 186 kts | 286° |
| 2026-04-26 18:00 | -11.54405 | -56.48549 | 4424 ft | 186 kts | 285° |
| 2026-04-26 18:00 | -11.54092 | -56.49820 | 4434 ft | 186 kts | 285° |
| 2026-04-26 18:00 | -11.53883 | -56.50671 | 4432 ft | 187 kts | 285° |
| 2026-04-26 18:01 | -11.53566 | -56.51952 | 4429 ft | 186 kts | 285° |
| 2026-04-26 18:01 | -11.53251 | -56.53233 | 4438 ft | 188 kts | 285° |
| 2026-04-26 18:01 | -11.52929 | -56.54530 | 4440 ft | 189 kts | 286° |
| 2026-04-26 18:01 | -11.52613 | -56.55845 | 4429 ft | 190 kts | 285° |
| 2026-04-26 18:02 | -11.52296 | -56.57147 | 4431 ft | 188 kts | 285° |
| 2026-04-26 18:02 | -11.52078 | -56.58001 | 4433 ft | 188 kts | 285° |
| 2026-04-26 18:02 | -11.51644 | -56.59722 | 4437 ft | 188 kts | 285° |
| 2026-04-26 18:02 | -11.51318 | -56.61025 | 4429 ft | 191 kts | 286° |
| 2026-04-26 18:03 | -11.51008 | -56.62340 | 4426 ft | 191 kts | 285° |
| 2026-04-26 18:03 | -11.50695 | -56.63659 | 4440 ft | 194 kts | 286° |
| 2026-04-26 18:03 | -11.50370 | -56.65008 | 4434 ft | 197 kts | 285° |
| 2026-04-26 18:03 | -11.50052 | -56.66341 | 4440 ft | 195 kts | 283° |
| 2026-04-26 18:04 | -11.49925 | -56.67731 | 4434 ft | 194 kts | 270° |
| 2026-04-26 18:04 | -11.49989 | -56.69074 | 4431 ft | 190 kts | 265° |
| 2026-04-26 18:04 | -11.50120 | -56.70414 | 4426 ft | 189 kts | 265° |
| 2026-04-26 18:05 | -11.50400 | -56.73077 | 4419 ft | 189 kts | 264° |
| 2026-04-26 18:05 | -11.50545 | -56.74427 | 4422 ft | 194 kts | 264° |
| 2026-04-26 18:05 | -11.50691 | -56.75790 | 4424 ft | 193 kts | 264° |
| 2026-04-26 18:05 | -11.50836 | -56.77142 | 4430 ft | 192 kts | 264° |
| 2026-04-26 18:06 | -11.50982 | -56.78508 | 4438 ft | 196 kts | 265° |
| 2026-04-26 18:06 | -11.51133 | -56.79900 | 4434 ft | 198 kts | 264° |
| 2026-04-26 18:06 | -11.51277 | -56.81288 | 4434 ft | 196 kts | 264° |
| 2026-04-26 18:06 | -11.51420 | -56.82662 | 4433 ft | 193 kts | 264° |
| 2026-04-26 18:07 | -11.51554 | -56.84017 | 4431 ft | 190 kts | 264° |
| 2026-04-26 18:07 | -11.51691 | -56.85352 | 4425 ft | 189 kts | 264° |
| 2026-04-26 18:07 | -11.51832 | -56.86683 | 4424 ft | 188 kts | 264° |
| 2026-04-26 18:07 | -11.51926 | -56.87556 | 4422 ft | 188 kts | 265° |
| 2026-04-26 18:08 | -11.52116 | -56.89332 | 4427 ft | 187 kts | 264° |
| 2026-04-26 18:08 | -11.52249 | -56.90635 | 4425 ft | 186 kts | 264° |
| 2026-04-26 18:08 | -11.52388 | -56.91951 | 4424 ft | 188 kts | 265° |
| 2026-04-26 18:08 | -11.52542 | -56.93282 | 4424 ft | 190 kts | 265° |
| 2026-04-26 18:09 | -11.52696 | -56.94628 | 4421 ft | 192 kts | 264° |
| 2026-04-26 18:09 | -11.52846 | -56.95980 | 4425 ft | 194 kts | 264° |
| 2026-04-26 18:09 | -11.52993 | -56.97348 | 4424 ft | 194 kts | 264° |
| 2026-04-26 18:09 | -11.53133 | -56.98711 | 4428 ft | 192 kts | 264° |
| 2026-04-26 18:10 | -11.53268 | -57.00065 | 4425 ft | 192 kts | 265° |
| 2026-04-26 18:10 | -11.53408 | -57.01421 | 4425 ft | 192 kts | 264° |
| 2026-04-26 18:10 | -11.53540 | -57.02776 | 4431 ft | 193 kts | 264° |
| 2026-04-26 18:10 | -11.53674 | -57.04137 | 4434 ft | 192 kts | 265° |
| 2026-04-26 18:11 | -11.53807 | -57.05498 | 4440 ft | 193 kts | 265° |
| 2026-04-26 18:11 | -11.53943 | -57.06849 | 4434 ft | 193 kts | 265° |
| 2026-04-26 18:11 | -11.54087 | -57.08205 | 4429 ft | 192 kts | 266° |
| 2026-04-26 18:11 | -11.54138 | -57.09558 | 4425 ft | 191 kts | 272° |
| 2026-04-26 18:12 | -11.54143 | -57.10915 | 4427 ft | 193 kts | 271° |
| 2026-04-26 18:12 | -11.54129 | -57.12291 | 4366 ft | 196 kts | 271° |
| 2026-04-26 18:12 | -11.54107 | -57.13708 | 4248 ft | 203 kts | 272° |
| 2026-04-26 18:12 | -11.54089 | -57.15158 | 4133 ft | 205 kts | 272° |
| 2026-04-26 18:13 | -11.54078 | -57.16620 | 4017 ft | 204 kts | 272° |
| 2026-04-26 18:13 | -11.54087 | -57.18053 | 3889 ft | 200 kts | 270° |
| 2026-04-26 18:13 | -11.54138 | -57.19462 | 3776 ft | 198 kts | 268° |
| 2026-04-26 18:13 | -11.54168 | -57.20377 | 3688 ft | 191 kts | 269° |
| 2026-04-26 18:14 | -11.54230 | -57.22158 | 3524 ft | 185 kts | 269° |
| 2026-04-26 18:14 | -11.54276 | -57.23453 | 3405 ft | 182 kts | 269° |
| 2026-04-26 18:14 | -11.54324 | -57.24741 | 3270 ft | 180 kts | 269° |
| 2026-04-26 18:14 | -11.54375 | -57.25993 | 3139 ft | 174 kts | 269° |
| 2026-04-26 18:15 | -11.54425 | -57.27206 | 3017 ft | 169 kts | 268° |
| 2026-04-26 18:15 | -11.54461 | -57.28398 | 2892 ft | 168 kts | 269° |
| 2026-04-26 18:15 | -11.54498 | -57.29585 | 2771 ft | 167 kts | 269° |
| 2026-04-26 18:15 | -11.54524 | -57.30763 | 2648 ft | 166 kts | 272° |
| 2026-04-26 18:16 | -11.54494 | -57.31942 | 2533 ft | 167 kts | 273° |
| 2026-04-26 18:16 | -11.53949 | -57.34247 | 2306 ft | 171 kts | 290° |
| 2026-04-26 18:16 | -11.53576 | -57.35414 | 2096 ft | 177 kts | 289° |
| 2026-04-26 18:17 | -11.53153 | -57.36548 | 2021 ft | 165 kts | 293° |
| 2026-04-26 18:17 | -11.52802 | -57.37623 | 1905 ft | 155 kts | 274° |
| 2026-04-26 18:17 | -11.53106 | -57.38596 | 1837 ft | 144 kts | 234° |
| 2026-04-26 18:17 | -11.53773 | -57.39320 | 1656 ft | 137 kts | 224° |
| 2026-04-26 18:18 | -11.54445 | -57.39963 | 1485 ft | 127 kts | 210° |
| 2026-04-26 18:18 | -11.55216 | -57.39945 | 1382 ft | 113 kts | 129° |
| 2026-04-26 18:18 | -11.55302 | -57.39195 | 1264 ft | 113 kts | 71° |
| 2026-04-26 18:18 | -11.54852 | -57.38629 | 1059 ft | 98 kts | 42° |
| 2026-04-26 18:19 | -11.54380 | -57.38192 | 933 ft | 82 kts | 45° |
| 2026-04-26 18:19 | -11.53979 | -57.37798 | 907 ft | 99 kts | 45° |
| 2026-04-26 18:19 | -11.53424 | -57.37275 | 1208 ft | 112 kts | 42° |
| 2026-04-26 18:19 | -11.52731 | -57.36852 | 1400 ft | 128 kts | 7° |
| 2026-04-26 18:20 | -11.51981 | -57.37278 | 1606 ft | 141 kts | 295° |
| 2026-04-26 18:20 | -11.52043 | -57.38258 | 1750 ft | 145 kts | 239° |
| 2026-04-26 18:20 | -11.52603 | -57.39076 | 2056 ft | 141 kts | 247° |
| 2026-04-26 18:20 | -11.52788 | -57.39713 | 2192 ft | 143 kts | 256° |
| 2026-04-26 18:21 | -11.53165 | -57.41042 | 2455 ft | 148 kts | 255° |
| 2026-04-26 18:21 | -11.53326 | -57.42070 | 2648 ft | 149 kts | 272° |
| 2026-04-26 18:21 | -11.53333 | -57.43106 | 2852 ft | 145 kts | 272° |
| 2026-04-26 18:21 | -11.53313 | -57.44156 | 3091 ft | 148 kts | 276° |
| 2026-04-26 18:22 | -11.53187 | -57.45195 | 3326 ft | 151 kts | 279° |
| 2026-04-26 18:22 | -11.53051 | -57.46264 | 3561 ft | 153 kts | 279° |
| 2026-04-26 18:22 | -11.52905 | -57.47370 | 3815 ft | 159 kts | 279° |
| 2026-04-26 18:22 | -11.52764 | -57.48475 | 4043 ft | 158 kts | 279° |
| 2026-04-26 18:23 | -11.52616 | -57.49615 | 4219 ft | 166 kts | 280° |
| 2026-04-26 18:23 | -11.52462 | -57.50804 | 4401 ft | 172 kts | 280° |
| 2026-04-26 18:23 | -11.52300 | -57.52043 | 4429 ft | 181 kts | 280° |
| 2026-04-26 18:23 | -11.52136 | -57.53336 | 4437 ft | 187 kts | 279° |
| 2026-04-26 18:24 | -11.51965 | -57.54673 | 4441 ft | 192 kts | 280° |
| 2026-04-26 18:24 | -11.51786 | -57.56036 | 4438 ft | 195 kts | 281° |
| 2026-04-26 18:24 | -11.51607 | -57.57413 | 4442 ft | 196 kts | 280° |
| 2026-04-26 18:24 | -11.51430 | -57.58798 | 4440 ft | 199 kts | 279° |
| 2026-04-26 18:25 | -11.51248 | -57.60203 | 4434 ft | 199 kts | 280° |
| 2026-04-26 18:25 | -11.51069 | -57.61593 | 4438 ft | 197 kts | 279° |
| 2026-04-26 18:25 | -11.50889 | -57.62981 | 4437 ft | 197 kts | 280° |
| 2026-04-26 18:25 | -11.50709 | -57.64369 | 4433 ft | 197 kts | 279° |
| 2026-04-26 18:26 | -11.50531 | -57.65745 | 4432 ft | 195 kts | 279° |
| 2026-04-26 18:26 | -11.50354 | -57.67113 | 4428 ft | 194 kts | 279° |
| 2026-04-26 18:26 | -11.50178 | -57.68472 | 4427 ft | 193 kts | 279° |
| 2026-04-26 18:26 | -11.50005 | -57.69808 | 4425 ft | 192 kts | 279° |
| 2026-04-26 18:27 | -11.49829 | -57.71170 | 4427 ft | 191 kts | 279° |
| 2026-04-26 18:27 | -11.49657 | -57.72492 | 4427 ft | 191 kts | 279° |
| 2026-04-26 18:27 | -11.49483 | -57.73835 | 4426 ft | 191 kts | 279° |
| 2026-04-26 18:27 | -11.49308 | -57.75174 | 4423 ft | 190 kts | 279° |
| 2026-04-26 18:28 | -11.49136 | -57.76507 | 4424 ft | 190 kts | 279° |
| 2026-04-26 18:28 | -11.48963 | -57.77844 | 4426 ft | 190 kts | 279° |
| 2026-04-26 18:28 | -11.48789 | -57.79172 | 4431 ft | 188 kts | 279° |
| 2026-04-26 18:28 | -11.48617 | -57.80504 | 4433 ft | 189 kts | 279° |
| 2026-04-26 18:29 | -11.48441 | -57.81844 | 4429 ft | 192 kts | 279° |
| 2026-04-26 18:29 | -11.48268 | -57.83187 | 4428 ft | 190 kts | 279° |
| 2026-04-26 18:29 | -11.48116 | -57.84526 | 4426 ft | 191 kts | 272° |
| 2026-04-26 18:29 | -11.48276 | -57.85874 | 4424 ft | 192 kts | 262° |
| 2026-04-26 18:30 | -11.48457 | -57.87216 | 4432 ft | 190 kts | 264° |
| 2026-04-26 18:30 | -11.48632 | -57.88566 | 4432 ft | 194 kts | 263° |
| 2026-04-26 18:30 | -11.48813 | -57.89935 | 4438 ft | 196 kts | 264° |
| 2026-04-26 18:30 | -11.48994 | -57.91304 | 4441 ft | 198 kts | 264° |
| 2026-04-26 18:31 | -11.49177 | -57.92691 | 4437 ft | 195 kts | 263° |
| 2026-04-26 18:31 | -11.49359 | -57.94060 | 4439 ft | 196 kts | 263° |
| 2026-04-26 18:31 | -11.49541 | -57.95446 | 4441 ft | 199 kts | 263° |
| 2026-04-26 18:31 | -11.49726 | -57.96842 | 4428 ft | 197 kts | 264° |
| 2026-04-26 18:32 | -11.49908 | -57.98222 | 4437 ft | 197 kts | 263° |
| 2026-04-26 18:32 | -11.50091 | -57.99614 | 4429 ft | 198 kts | 263° |
| 2026-04-26 18:32 | -11.50275 | -58.00996 | 4386 ft | 194 kts | 263° |
| 2026-04-26 18:32 | -11.50449 | -58.02306 | 4227 ft | 180 kts | 264° |
| 2026-04-26 18:33 | -11.50612 | -58.03549 | 4047 ft | 174 kts | 264° |
| 2026-04-26 18:33 | -11.50775 | -58.04776 | 3872 ft | 175 kts | 264° |
| 2026-04-26 18:33 | -11.50938 | -58.06020 | 3702 ft | 178 kts | 263° |
| 2026-04-26 18:33 | -11.51102 | -58.07271 | 3541 ft | 179 kts | 263° |
| 2026-04-26 18:34 | -11.51268 | -58.08531 | 3389 ft | 181 kts | 263° |
| 2026-04-26 18:34 | -11.51438 | -58.09811 | 3270 ft | 183 kts | 263° |
| 2026-04-26 18:34 | -11.51606 | -58.11092 | 3151 ft | 181 kts | 263° |
| 2026-04-26 18:34 | -11.51773 | -58.12367 | 3038 ft | 182 kts | 263° |
| 2026-04-26 18:35 | -11.51940 | -58.13637 | 2957 ft | 179 kts | 263° |
| 2026-04-26 18:35 | -11.52104 | -58.14874 | 2883 ft | 174 kts | 263° |
| 2026-04-26 18:35 | -11.52263 | -58.16090 | 2823 ft | 174 kts | 263° |
| 2026-04-26 18:35 | -11.52427 | -58.17333 | 2746 ft | 179 kts | 263° |
| 2026-04-26 18:36 | -11.52565 | -58.18594 | 2669 ft | 178 kts | 266° |
| 2026-04-26 18:36 | -11.52657 | -58.19852 | 2597 ft | 177 kts | 267° |
| 2026-04-26 18:36 | -11.52783 | -58.21104 | 2489 ft | 179 kts | 264° |
| 2026-04-26 18:36 | -11.52918 | -58.22363 | 2372 ft | 181 kts | 268° |
| 2026-04-26 18:37 | -11.52902 | -58.23641 | 2250 ft | 178 kts | 274° |
| 2026-04-26 18:37 | -11.52778 | -58.24883 | 2125 ft | 174 kts | 278° |
| 2026-04-26 18:37 | -11.52743 | -58.26090 | 1987 ft | 166 kts | 260° |
| 2026-04-26 18:37 | -11.53022 | -58.27176 | 1920 ft | 152 kts | 255° |
| 2026-04-26 18:38 | -11.53309 | -58.28196 | 1813 ft | 143 kts | 254° |
| 2026-04-26 18:38 | -11.53574 | -58.29116 | 1707 ft | 130 kts | 255° |
| 2026-04-26 18:38 | -11.54121 | -58.29694 | 1570 ft | 107 kts | 190° |
| 2026-04-26 18:38 | -11.54777 | -58.29594 | 1352 ft | 91 kts | 129° |
| 2026-04-26 18:39 | -11.54778 | -58.29014 | 1253 ft | 94 kts | 63° |
| 2026-04-26 18:39 | -11.54469 | -58.28391 | 1190 ft | 97 kts | 68° |
| 2026-04-26 18:39 | -11.54269 | -58.27794 | 1037 ft | 83 kts | 72° |
| 2026-04-26 18:39 | -11.54156 | -58.27445 | 1002 ft | 71 kts | 69° |
| 2026-04-26 18:40 | -11.53899 | -58.26643 | 1185 ft | 108 kts | 73° |
| 2026-04-26 18:40 | -11.53704 | -58.25865 | 1497 ft | 121 kts | 76° |
| 2026-04-26 18:40 | -11.53244 | -58.25238 | 1812 ft | 122 kts | 9° |
| 2026-04-26 18:40 | -11.52528 | -58.25699 | 2020 ft | 136 kts | 290° |
| 2026-04-26 18:41 | -11.52744 | -58.26640 | 2141 ft | 148 kts | 233° |
| 2026-04-26 18:41 | -11.53222 | -58.27589 | 2229 ft | 164 kts | 254° |
| 2026-04-26 18:41 | -11.53527 | -58.28761 | 2362 ft | 172 kts | 255° |
| 2026-04-26 18:41 | -11.53660 | -58.29957 | 2603 ft | 168 kts | 273° |
| 2026-04-26 18:42 | -11.53641 | -58.30358 | 2688 ft | 167 kts | 275° |
| 2026-04-26 18:42 | -11.53357 | -58.34250 | 3496 ft | 154 kts | 282° |
| 2026-04-26 18:43 | -11.53212 | -58.35336 | 3731 ft | 154 kts | 281° |
| 2026-04-26 18:43 | -11.52929 | -58.36370 | 3968 ft | 151 kts | 296° |
| 2026-04-26 18:43 | -11.52682 | -58.37415 | 4198 ft | 152 kts | 280° |
| 2026-04-26 18:43 | -11.52380 | -58.38443 | 4423 ft | 155 kts | 292° |
| 2026-04-26 18:44 | -11.52012 | -58.39532 | 4441 ft | 169 kts | 291° |
| 2026-04-26 18:44 | -11.51639 | -58.40705 | 4443 ft | 179 kts | 291° |
| 2026-04-26 18:44 | -11.51246 | -58.41935 | 4443 ft | 183 kts | 290° |
| 2026-04-26 18:44 | -11.50850 | -58.43177 | 4442 ft | 186 kts | 291° |
| 2026-04-26 18:45 | -11.50445 | -58.44449 | 4438 ft | 190 kts | 291° |
| 2026-04-26 18:45 | -11.50035 | -58.45726 | 4438 ft | 194 kts | 291° |
| 2026-04-26 18:45 | -11.49614 | -58.47039 | 4438 ft | 194 kts | 291° |
| 2026-04-26 18:45 | -11.49195 | -58.48352 | 4437 ft | 194 kts | 290° |
| 2026-04-26 18:46 | -11.48778 | -58.49659 | 4440 ft | 193 kts | 291° |
| 2026-04-26 18:46 | -11.48359 | -58.50970 | 4375 ft | 196 kts | 291° |
| 2026-04-26 18:46 | -11.47941 | -58.52274 | 4249 ft | 191 kts | 291° |
| 2026-04-26 18:46 | -11.47532 | -58.53558 | 4130 ft | 191 kts | 291° |
| 2026-04-26 18:47 | -11.47122 | -58.54833 | 4002 ft | 188 kts | 290° |
| 2026-04-26 18:47 | -11.46717 | -58.56101 | 3887 ft | 188 kts | 291° |
| 2026-04-26 18:47 | -11.46305 | -58.57385 | 3757 ft | 190 kts | 290° |
| 2026-04-26 18:47 | -11.45905 | -58.58642 | 3632 ft | 182 kts | 290° |
| 2026-04-26 18:48 | -11.45518 | -58.59851 | 3514 ft | 177 kts | 291° |
| 2026-04-26 18:48 | -11.45139 | -58.61035 | 3387 ft | 175 kts | 291° |
| 2026-04-26 18:48 | -11.44767 | -58.62195 | 3253 ft | 169 kts | 292° |
| 2026-04-26 18:48 | -11.44403 | -58.63334 | 3151 ft | 171 kts | 291° |
| 2026-04-26 18:49 | -11.44061 | -58.64510 | 3019 ft | 172 kts | 289° |
| 2026-04-26 18:49 | -11.43699 | -58.65684 | 2913 ft | 176 kts | 291° |
| 2026-04-26 18:49 | -11.43333 | -58.66877 | 2788 ft | 176 kts | 290° |
| 2026-04-26 18:49 | -11.42978 | -58.68058 | 2660 ft | 173 kts | 291° |
| 2026-04-26 18:50 | -11.42626 | -58.69232 | 2550 ft | 174 kts | 290° |
| 2026-04-26 18:50 | -11.42273 | -58.70386 | 2441 ft | 166 kts | 290° |
| 2026-04-26 18:50 | -11.41939 | -58.71473 | 2420 ft | 155 kts | 290° |
| 2026-04-26 18:50 | -11.42033 | -58.72509 | 2418 ft | 146 kts | 238° |
| 2026-04-26 18:51 | -11.42813 | -58.73007 | 2441 ft | 127 kts | 184° |
| 2026-04-26 18:51 | -11.43698 | -58.73020 | 2300 ft | 130 kts | 171° |
| 2026-04-26 18:51 | -11.44564 | -58.72886 | 2164 ft | 122 kts | 165° |
| 2026-04-26 18:51 | -11.45358 | -58.72673 | 1948 ft | 112 kts | 143° |
| 2026-04-26 18:52 | -11.45772 | -58.72046 | 1720 ft | 111 kts | 94° |
| 2026-04-26 18:52 | -11.45457 | -58.71409 | 1619 ft | 105 kts | 34° |
| 2026-04-26 18:52 | -11.44787 | -58.70987 | 1485 ft | 110 kts | 33° |
| 2026-04-26 18:52 | -11.44155 | -58.70689 | 1357 ft | 97 kts | 13° |
| 2026-04-26 18:53 | -11.43486 | -58.70677 | 1254 ft | 97 kts | 351° |
| 2026-04-26 18:53 | -11.42818 | -58.70810 | 1098 ft | 97 kts | 350° |
| 2026-04-26 18:53 | -11.42214 | -58.70937 | 1059 ft | 71 kts | 347° |
| 2026-04-26 18:53 | -11.41922 | -58.71003 | 1063 ft | 21 kts | 346° |
| 2026-04-26 18:54 | -11.41827 | -58.71015 | 1063 ft | 10 kts | 36° |
| 2026-04-26 18:54 | -11.41807 | -58.70957 | 1065 ft | 8 kts | 82° |
| 2026-04-26 18:54 | -11.41801 | -58.70913 | 1066 ft | 5 kts | 88° |
| 2026-04-26 18:54 | -11.41828 | -58.70891 | 1066 ft | 5 kts | 171° |
| 2026-04-26 18:55 | -11.41838 | -58.70882 | 1067 ft | 0 kts | 67° |
| 2026-04-26 18:55 | -11.41828 | -58.70880 | 1067 ft | 0 kts | 349° |